Norway House Airport

CYNE | YNE

Norway House , Manitoba , Canada

Sunday, January 19th, 2020 | 13:01

Weather

CYNE 191800Z AUTO 25003KT 210V300 9SM CLR M21/M23 A3061 RMK SLP397

Charts

No Charts Available

Gates

No Gates Available

Runways

1 Available

Events

No events for this airport


New event